タシケント空港の過去48時間の天気

タシケント空港 (Tashkent)

現在時刻: 1/18 15:26 +05 (1/18 10:26 UTC) 以下の時間は現地時間です。

過去48時間のMETAR気象情報
時間 風向 風速(m/s) 視程 気温(℃) 湿度(%) 気圧(hPa) 天気現象
18 15:00 不定 1 4000m 1 75 1024 もや
18 14:30 1 4000m 0 93 1024 もや
18 14:00 不定 1 3000m -2 100 1024 もや
18 13:30 不定 1 2100m -2 93 1025 もや
18 13:00 不定 1 2200m -3 93 1026 もや
18 12:30 2 1500m -4 100 1026 もや
18 12:00 南南東 2 900m -4 93 1027 部分霧
18 11:30 不定 1 800m -4 100 1027 氷霧
18 11:00 南東 2 650m -4 93 1028 氷霧
18 10:30 不定 1 500m -5 100 1028 弱い雪 氷霧
18 10:00 不定 1 550m -5 100 1028 氷霧 弱い雪
18 09:30 不定 1 550m -5 100 1029 氷霧
18 09:00 不定 1 250m -5 93 1029 氷霧
18 08:30 不定 1 150m -5 100 1029 弱い雪 氷霧
18 08:00 静穏 0 300m -5 100 1029 氷霧 弱い雪
18 07:30 静穏 0 100m -5 93 1029 氷霧
18 07:00 不定 1 100m -5 100 1029 氷霧
18 06:30 静穏 0 100m -5 93 1029 氷霧
18 06:00 南南東 1 150m -5 93 1029 氷霧
18 05:30 不定 1 150m -6 93 1029 氷霧
18 05:00 不定 1 50m -6 93 1029 氷霧
18 04:30 不定 1 100m -7 100 1029 氷霧
18 04:00 不定 1 100m -7 100 1029 氷霧
18 03:30 南南東 2 100m -6 93 1030 部分霧
18 03:00 静穏 0 1000m -6 93 1030 もや
18 02:30 静穏 0 600m -6 93 1030 部分霧
18 02:00 南南東 2 3000m -4 86 1030 もや
18 01:30 不定 1 3000m -4 80 1030 もや
18 01:00 1 3000m -3 80 1031 もや
18 00:30 静穏 0 3000m -3 80 1031 もや
18 00:00 東北東 2 3000m -3 86 1031 もや
17 23:30 静穏 0 3000m -3 80 1032 もや
17 23:00 静穏 0 3000m -2 80 1032 もや 煙
17 22:30 1 3000m -1 74 1032 もや 煙
17 22:00 東北東 2 3000m -1 69 1033 もや 煙
17 21:30 東北東 2 3000m -1 74 1033 もや 煙
17 21:00 東北東 2 4000m -1 74 1033
17 20:30 北北東 3 4000m 0 69 1033
17 20:00 2 4000m 1 60 1034
17 19:30 北東 3 4000m 1 60 1034
17 19:00 3 10km以上 2 51 1034
17 18:30 3 10km以上 2 51 1034
17 18:00 4 10km以上 2 51 1034
17 17:30 3 10km以上 2 55 1034
17 17:00 4 10km以上 3 52 1034
17 16:30 4 10km以上 3 52 1034
17 16:00 北東 5 7000m 4 45 1034
17 15:30 北東 5 7000m 4 38 1034
17 15:00 北北西 3 7000m 4 41 1034
17 14:30 北北西 2 4000m 4 38 1034
17 14:00 西北西 3 3000m 4 60 1034
17 13:30 西南西 2 3000m 4 60 1034
17 13:00 南西 2 3000m 3 65 1035
17 12:30 南西 2 3000m 2 64 1036
17 12:00 不定 1 3000m 2 64 1036
17 11:30 静穏 0 3000m 2 69 1037
17 11:00 静穏 0 2700m 1 75 1037 もや
17 10:30 北東 2 2100m -1 93 1037 もや
17 10:00 東北東 2 2100m -2 93 1037 もや
17 09:30 北東 2 650m -3 100 1037 部分霧
17 09:00 東北東 2 100m -4 100 1037 氷霧
17 08:30 東北東 2 100m -3 93 1037 氷霧
17 08:00 東北東 2 100m -3 93 1037 氷霧
17 07:30 不定 1 50m -3 93 1037 氷霧
17 07:00 2 100m -3 93 1037 氷霧
17 06:30 東北東 2 800m -3 93 1037 氷霧
17 06:00 2 100m -3 93 1036 氷霧
17 05:30 南東 2 200m -3 86 1036 氷霧
17 05:00 東南東 2 3000m -4 86 1036 もや
17 04:30 2 3000m -3 80 1037 もや
17 04:00 2 3000m -4 80 1036 もや
17 03:30 2 3000m -4 86 1036 もや
17 03:00 東北東 2 2300m -3 86 1036 もや
17 02:30 北東 2 2600m -3 86 1036 もや
17 02:00 北東 2 2000m -3 86 1036 もや
17 01:30 北東 2 1600m -3 93 1036 もや
17 01:00 北東 2 1600m -2 86 1036 もや
17 00:30 北東 3 1600m -2 93 1036 もや
17 00:00 北北東 2 2300m -2 93 1036 もや
16 23:30 北東 3 2200m -2 93 1036 もや
16 23:00 北東 3 3000m -1 86 1036 もや
16 22:30 北北東 2 3000m -1 86 1036 もや
16 22:00 2 4000m -1 80 1036 もや
16 21:30 2 4000m -1 80 1036 もや
16 21:00 2 4000m -1 80 1036 もや
16 20:30 3 4000m 0 74 1035 もや
16 20:00 3 4000m 0 80 1035 もや
16 19:30 北西 3 4000m 0 80 1035 もや
16 19:00 北北西 2 4000m 0 80 1035 もや 煙
16 18:30 北西 3 4000m 1 69 1035 もや 煙
16 18:00 3 10km以上 1 69 1035
16 17:30 3 10km以上 1 69 1035
16 17:00 5 10km以上 2 64 1034
16 16:30 5 7000m 2 69 1034
16 16:00 5 7000m 2 69 1034 弱いしゅう雪
16 15:30 5 5000m 2 75 1034 弱いしゅう雪 もや
UTTT 181000Z VRB02KT 4000 BR NSC 01/M03 Q1024 R08L/19//60 NOSIG
UTTT 180930Z 18002KT 4000 BR NSC M00/M01 Q1024 R08L/19//60 NOSIG
UTTT 180900Z VRB02KT 3000 BR NSC M02/M02 Q1024 R08L/19//60 NOSIG
UTTT 180830Z VRB02KT 2100 BR FEW010 M02/M03 Q1025 R08L/19//60 NOSIG
UTTT 180800Z VRB02KT 2200 BR SCT010 M03/M04 Q1026 R08L/19//60 NOSIG
UTTT 180730Z 18004KT 140V260 1500 BR SCT010 M04/M04 Q1026 R08L/19//60 NOSIG
UTTT 180700Z 16004KT 140V200 0900 R08L/0900N PRFG OVC003 M04/M05 Q1027 R08L/19//60 NOSIG RMK BASE300
UTTT 180630Z VRB02KT 0800 R08L/0800 FZFG VV003 M04/M04 Q1027 R08L/19//60 NOSIG RMK BASE300
UTTT 180600Z 13004KT 080V190 0650 R08L/0650N FZFG VV002 M04/M05 Q1028 R08L/19//60 NOSIG RMK BASE200
UTTT 180530Z VRB02KT 0500 R08L/0500N -SN FZFG VV002 M05/M05 Q1028 R08L/19//60 NOSIG RMK BASE200
UTTT 180500Z VRB02KT 0550 R08L/0550U -SN FZFG VV002 M05/M05 Q1028 R08L/19//60 NOSIG RMK BASE200
UTTT 180430Z VRB02KT 0550 R08L/0550N FZFG VV002 M05/M05 Q1029 R08L/19//60 NOSIG RMK BASE200
UTTT 180400Z VRB02KT 0250 R08L/0300N FZFG VV001 M05/M06 Q1029 R08L/19//60 NOSIG RMK BASE160
UTTT 180330Z VRB02KT 0150 R08L/0200N -SN FZFG VV001 M05/M05 Q1029 R08L/19//60 NOSIG RMK BASE160
UTTT 180300Z 00000KT 0300 R08L/0300U -SN FZFG VV001 M05/M05 Q1029 R08L/19//60 NOSIG RMK BASE100
UTTT 180230Z 00000KT 0100 R08L/0250N FZFG VV001 M05/M06 Q1029 R08L/CLRD70 NOSIG RMK BASE160
UTTT 180200Z VRB02KT 0100 R08L/0450N FZFG VV001 M05/M05 Q1029 R08L/CLRD70 NOSIG RMK BASE100
UTTT 180130Z 00000KT 0100 R08L/0450N FZFG VV001 M05/M06 Q1029 R08L/CLRD70 NOSIG RMK BASE100
UTTT 180100Z 16002KT 0150 R08L/0600N FZFG VV001 M05/M06 Q1029 R08L/CLRD70 NOSIG RMK BASE100
UTTT 180030Z VRB02KT 0150 R08L/0550D FZFG VV001 M06/M07 Q1029 R08L/CLRD70 NOSIG RMK BASE100
UTTT 180000Z VRB02KT 0050 R08L/0250N FZFG VV001 M06/M07 Q1029 R08L/CLRD70 NOSIG RMK BASE100
UTTT 172330Z VRB02KT 0100 R08L/0300N FZFG VV001 M07/M07 Q1029 R08L/CLRD70 NOSIG RMK BASE100
UTTT 172300Z VRB02KT 0100 R08L/0350N FZFG VV001 M07/M07 Q1029 R08L/CLRD70 NOSIG RMK BASE100
UTTT 172230Z 16004KT 0100 R08L/0450N PRFG SCT001 M06/M07 Q1030 R08L/CLRD70 NOSIG RMK BASE100
UTTT 172200Z 00000KT 1000 R26R/P2000D BR SCT001 M06/M07 Q1030 R26R/CLRD70 NOSIG RMK BASE160
UTTT 172130Z 00000KT 0600 R08R/1700D PRFG NSC M06/M07 Q1030 R08R/CLRD70 NOSIG
UTTT 172100Z 15004KT 070V190 3000 BR NSC M04/M06 Q1030 R08R/CLRD70 NOSIG
UTTT 172030Z VRB02KT 3000 BR NSC M04/M07 Q1030 R08R/CLRD70 NOSIG
UTTT 172000Z 09002KT 3000 BR NSC M03/M06 Q1031 R08R/CLRD70 NOSIG
UTTT 171930Z 00000KT 3000 BR NSC M03/M06 Q1031 R08R/CLRD70 NOSIG
UTTT 171900Z 07004KT 030V090 3000 BR NSC M03/M05 Q1031 R08R/CLRD70 NOSIG
UTTT 171830Z 00000KT 3000 BR NSC M03/M06 Q1032 R08R/CLRD70 NOSIG
UTTT 171800Z 00000KT 3000 BR FU NSC M02/M05 Q1032 R08R/CLRD70 NOSIG
UTTT 171730Z 10002KT 3000 BR FU NSC M01/M05 Q1032 R08R/CLRD70 NOSIG
UTTT 171700Z 06004KT 3000 BR FU NSC M01/M06 Q1033 R08R/CLRD70 NOSIG
UTTT 171630Z 06004KT 3000 BR FU NSC M01/M05 Q1033 R08R/CLRD70 NOSIG
UTTT 171600Z 06004KT 4000 FU NSC M01/M05 Q1033 R08R/CLRD70 NOSIG
UTTT 171530Z 02006KT 4000 FU NSC 00/M05 Q1033 R08R/CLRD70 NOSIG
UTTT 171500Z 01004KT 4000 FU NSC 01/M06 Q1034 R08R/CLRD70 NOSIG
UTTT 171430Z 04006KT 4000 FU NSC 01/M06 Q1034 R08R/CLRD70 NOSIG
UTTT 171400Z 35006KT CAVOK 02/M07 Q1034 R08R/CLRD70 NOSIG
UTTT 171330Z 35006KT CAVOK 02/M07 Q1034 R08R/CLRD70 NOSIG
UTTT 171300Z 36008KT CAVOK 02/M07 Q1034 R08R/CLRD70 NOSIG
UTTT 171230Z 35006KT 340V050 CAVOK 02/M06 Q1034 R08R/CLRD70 NOSIG
UTTT 171200Z 35008KT CAVOK 03/M06 Q1034 R08R/CLRD70 NOSIG
UTTT 171130Z 01008KT CAVOK 03/M06 Q1034 R08R/CLRD70 NOSIG
UTTT 171100Z 04010KT 7000 NSC 04/M07 Q1034 R08R/CLRD70 NOSIG
UTTT 171030Z 04010KT 020V080 7000 NSC 04/M09 Q1034 R08R/CLRD70 NOSIG
UTTT 171000Z 34006KT 7000 NSC 04/M08 Q1034 R26R/CLRD70 NOSIG
UTTT 170930Z 34004KT 290V030 4000 FU NSC 04/M09 Q1034 R26R/CLRD70 NOSIG
UTTT 170900Z 29006KT 260V360 3000 FU NSC 04/M03 Q1034 R26R/CLRD70 NOSIG
UTTT 170830Z 24004KT 170V320 3000 FU NSC 04/M03 Q1034 R26R/CLRD70 NOSIG
UTTT 170800Z 22004KT 170V290 3000 FU NSC 03/M03 Q1035 R26R/CLRD70 NOSIG
UTTT 170730Z 22004KT 180V250 3000 FU NSC 02/M04 Q1036 R26R/CLRD70 NOSIG
UTTT 170700Z VRB02KT 3000 FU NSC 02/M04 Q1036 R08L/CLRD70 NOSIG
UTTT 170630Z 00000KT 3000 FU NSC 02/M03 Q1037 R08L/CLRD70 NOSIG
UTTT 170600Z 00000KT 2700 BR NSC 01/M03 Q1037 R08L/CLRD70 NOSIG
UTTT 170530Z 05004KT 2100 BR NSC M01/M02 Q1037 R08L/CLRD70 NOSIG
UTTT 170500Z 06004KT 2100 BR NSC M02/M03 Q1037 R08L/CLRD70 NOSIG
UTTT 170430Z 04004KT 0650 R08L/0650D PRFG OVC001 M03/M03 Q1037 R08L/CLRD70 NOSIG RMK BASE160
UTTT 170400Z 07004KT 0100 R08L/0150N FZFG VV001 M04/M04 Q1037 R08L/CLRD70 NOSIG RMK BASE100
UTTT 170330Z 07004KT 030V100 0100 R08L/0150N FZFG VV001 M03/M04 Q1037 R08L/CLRD70 NOSIG RMK BASE100
UTTT 170300Z 07004KT 0100 R08L/0150N FZFG VV001 M03/M04 Q1037 R08L/CLRD70 NOSIG RMK BASE100
UTTT 170230Z VRB02KT 0050 R08L/0200N FZFG VV001 M03/M04 Q1037 R08L/CLRD70 NOSIG RMK BASE100
UTTT 170200Z 08004KT 0100 R08L/0300N FZFG VV001 M03/M04 Q1037 R08L/CLRD70 NOSIG RMK BASE160
UTTT 170130Z 07004KT 0800 R08L/P2000U FZFG OVC001 M03/M04 Q1037 R08L/CLRD70 NOSIG RMK BASE160
UTTT 170100Z 10004KT 0100 R08L/0350N FZFG VV001 M03/M04 Q1036 R08L/CLRD70 NOSIG RMK BASE160
UTTT 170030Z 13004KT 0200 R08R/0650D FZFG OVC007 M03/M05 Q1036 R08R/CLRD70 TEMPO 0100 FZFG VV002
UTTT 170000Z 12004KT 3000 BR SCT009 M04/M06 Q1036 R08R/CLRD70 NOSIG
UTTT 162330Z 10004KT 080V140 3000 BR FEW010 M03/M06 Q1037 R08R/CLRD70 NOSIG
UTTT 162300Z 08004KT 3000 BR SCT010 M04/M07 Q1036 R08R/CLRD70 NOSIG
UTTT 162230Z 09004KT 3000 BR NSC M04/M06 Q1036 R08R/CLRD70 NOSIG
UTTT 162200Z 07004KT 2300 BR NSC M03/M05 Q1036 R08R/CLRD70 NOSIG
UTTT 162130Z 04004KT 2600 BR NSC M03/M05 Q1036 R08R/CLRD70 NOSIG
UTTT 162100Z 05004KT 2000 BR NSC M03/M05 Q1036 R08R/CLRD70 NOSIG
UTTT 162030Z 04004KT 1600 R08R/P2000N BR NSC M03/M04 Q1036 R08R/CLRD70 NOSIG
UTTT 162000Z 05004KT 1600 R08R/P2000N BR NSC M02/M04 Q1036 R08R/CLRD70 NOSIG
UTTT 161930Z 04006KT 1600 R08R/P2000D BR NSC M02/M03 Q1036 R08R/CLRD70 NOSIG
UTTT 161900Z 03004KT 2300 BR NSC M02/M03 Q1036 R08R/CLRD70 NOSIG
UTTT 161830Z 04006KT 2200 BR NSC M02/M03 Q1036 R08R/CLRD70 NOSIG
UTTT 161800Z 04006KT 020V080 3000 BR NSC M01/M03 Q1036 R08R/CLRD70 NOSIG
UTTT 161730Z 02004KT 3000 BR NSC M01/M03 Q1036 R08R/CLRD70 NOSIG
UTTT 161700Z 36004KT 4000 BR NSC M01/M04 Q1036 R08R/CLRD70 NOSIG
UTTT 161630Z 36004KT 4000 BR NSC M01/M04 Q1036 R08R/CLRD70 NOSIG
UTTT 161600Z 36004KT 4000 BR NSC M01/M04 Q1036 R08R/CLRD70 NOSIG
UTTT 161530Z 36006KT 340V040 4000 BR NSC M00/M04 Q1035 R08R/CLRD70 NOSIG
UTTT 161500Z 35006KT 4000 BR NSC M00/M03 Q1035 R08R/CLRD70 NOSIG
UTTT 161430Z 32006KT 270V050 4000 BR NSC 00/M03 Q1035 R08R/CLRD70 NOSIG
UTTT 161400Z 34004KT 310V040 4000 BR FU NSC 00/M03 Q1035 R08R/CLRD70 NOSIG
UTTT 161330Z 32006KT 300V010 4000 BR FU NSC 01/M04 Q1035 R08R/CLRD70 NOSIG
UTTT 161300Z 35006KT 320V020 CAVOK 01/M04 Q1035 R08R/CLRD70 NOSIG
UTTT 161230Z 36006KT CAVOK 01/M04 Q1035 R08R/CLRD70 NOSIG
UTTT 161200Z 36010KT 340V060 CAVOK 02/M04 Q1034 R08R/CLRD70 NOSIG
UTTT 161130Z 01010KT 7000 SCT050CB 02/M03 Q1034 R08R/CLRD70 NOSIG
UTTT 161100Z 36010KT 330V030 7000 -SHSN OVC035CB 02/M03 Q1034 R08R/CLRD70 NOSIG
UTTT 161030Z 36010KT 330V040 5000 -SHSN BR OVC026CB 02/M02 Q1034 R08R/CLRD70 NOSIG